Dickerson Run, PA

8:08 AM EST on December 21, 2014 (GMT -0500)
Parkview Terrace | Change Station
CLOSE
Current Station
Personal Weather Station
Location: Mt Pleasant, PA
Elevation: 1138 ft
Nearby Weather Stations

Elev 1138 ft 40.14 °N, 79.54 °W | Updated 13 minutes ago

Overcast
Overcast
27.3 °F
Feels Like 27 °F
N
1.7
Wind Variable Wind from WSW

Today
High -- | Low -- °F
--% Chance of Precip.
Yesterday
High -- | Low -- °F
Precip. -- in
7:37 AM 4:56 PM
Waning Crescent, 0% visible
Pressure 30.33 in
Visibility 6.0 miles
Clouds Scattered Clouds 2500 ft
Overcast 5000 ft
Windchill 27 °F
Dew Point 25 °F
Humidity 90%
Rainfall 0.00 in
Snow Depth Not available.
UV 0 out of 12
Pollen .10 out of 12
Air Quality Not available.
Flu Activity Not available.
METAR KLBE 211247Z 00000KT 6SM BR SCT025 OVC050 M03/M04 A3033

More Conditions Fewer Conditions

Pressure 30.33 in
Visibility 6.0 miles
Clouds Scattered Clouds 2500 ft
Overcast 5000 ft
Windchill 27 °F
Dew Point 25 °F
Humidity 90%
Rainfall 0.00 in
Snow Depth Not available.
UV 0 out of 12
Pollen .10 out of 12
Air Quality Not available.
Flu Activity Not available.
METAR KLBE 211247Z 00000KT 6SM BR SCT025 OVC050 M03/M04 A3033

More Conditions Fewer Conditions

10-Day Weather Forecast

Almanac

Astronomy

Dec. 21, 2014 Rise Set
Actual Time
Civil Twilight
Nautical Twilight
Astronomical Twilight
Moon
Length of Visible Light
Length of Day
Tomorrow will be .
, % of the Moon is Illuminated

Today's Extremes

State Highs State Lows

Community

WunderPhotos

Upload Photos

1,779,373 photos uploaded!

WunderBlogs® & News

Nearby

Air Quality

  Air Quality AQ Index Pollutant
Not available.

Snow Depth

Station Depth Elevation

Earthquake Activity

City Distance Mag. Time & Date
Minimum magnitude displayed is 2.5.

Coastal Water Temperatures

Place Temperature

Nearby Weather Stations